KONL/ONL METAR and TAF weather

Enter ICAO airport designator
Station Type Date Time Source
KONL METAR 2022/01/26 07:35 UTC NOAA

KONL 260735Z AUTO 18005KT 10SM CLR M16/M20 A3030 RMK AO2 T11651200


Station Type Date Time Source
KONL Decoded METAR 2022/01/26 07:35 UTC NOAA

O'Neill / Baker Field, NE, United States (KONL) 42-28N 098-41W
Jan 26, 2022 - 02:35 AM EST / 2022.01.26 0735 UTC
Wind: from the S (180 degrees) at 6 MPH (5 KT):0
Visibility: 10 mile(s):0
Sky conditions: clear
Temperature: 2.3 F (-16.5 C)
Windchill: -9 F (-23 C):2
Dew Point: -4.0 F (-20.0 C)
Relative Humidity: 74%
Pressure (altimeter): 30.3 in. Hg (1026 hPa)
ob: KONL 260735Z AUTO 18005KT 10SM CLR M16/M20 A3030 RMK AO2 T11651200
cycle: 7

Station Type Date Time Source
KONL TAF UTC NOAA

Error!

Example: see airport list